Timeline UpdatesTrip UpdatesNews PostsPvt PostsTravel TipsAdmin PostsConv PostsFollowed PostsChat RequestsBlog PostsPNR Posts

Disclaimer
Search
 
 
Wed Sep 17, 2014 07:00:18 ISTHomeTrainsΣChainsAtlasPNRForumGalleryNewsFAQTripsMembersLoginFeedback
No Recent News for this Train
Other Trains in the News **new
Latest...
⇐ Return Journey: Train# 54824

54823/Jodhpur Hisar passenger (UnReserved)

Time-Table HAS CHANGED.
Sep 03 (1:57PM)
Change Departure Station:
Change Arrival Station:
Post a Train Travel TipPost a Train Travel Tip **new
Post a Comment/Question/Picture/VideoPost a Comment/Question/Picture/Video
Pantry/Catering
✕ NO Pantry Car
✕ NO Catering
RSA - Rake Sharing
Rake/Coach Composition
7 general , 2 slr , total 9 coach.
Loco
ABR WDM - 3A.
News    PNR    Forum    Time-Table    Availability    Fare Chart    Map    Arr/Dep History    Trips    Gallery    ΣChains    X/O    Timeline    
Travel Time: 2h 32m    11 halts    Distance: 103 km    Avg Speed: 40 km/hr
Type: Passenger
Zone: NWR/North Western
Departs @ 11:10
Platform# ???
SMTWTFS
Jodhpur Junction/JU 
Arrives @ 13:42
Platform# ???
SMTWTFS
Merta Road Junction/MTD 

11 halts. 12 intermediate Stations between Jodhpur Junction and Merta Road Junction

Show ALL intermediate Stations  Show Old Time-Table

#CodeStation NameX/OArrivesAvgDepartsAvgHaltPFDay#KmSpeedElevZoneAddress
1JU»Jodhpur Junction (5)»  -11:10---10.028241mNWRJodhpur, Rajasthan
2RKBRaikabagh Palace Junction (2)  11:15-11:17-2m--12.338237mNWRJodhpur, Rajasthan
3BNOBanarX  11:36-11:38-2m--114.262213mNWRBanar, Rajasthan
4JWLJajiwal  11:46-11:48-2m--122.567228mNWRJodhpur, Rajasthan
5AASAsranadaX  11:56-11:58-2m--131.346251mNWRState Highway 58, Rajasthan
6KSWKheri Salwa  12:11 12:10-12:13 12:11-2 1m--140.464269mNWRJajiwal, Rajasthan
7PPRPipar Road Junction  12:19 12:17-12:21 12:19-2m--146.951272mNWRState Highway 58, Rajasthan
8SWFSathin Road  12:30 12:29-12:32 12:30-2 1m--155.562284mNWRUMED, Rajasthan
9UMEDUmed  12:41 12:40-12:43 12:41-2 1m--165.861308mNWRJodhpur, Rajasthan
10KXGKharia KhangarhX  12:53 12:51-12:55 12:53-2m--176.023310mNWRKharia Khangar, Rajasthan
11GOTNGotan (3)X  13:08 13:12-13:10 13:14-2m--183.153323mNWRGotan, Rajasthan
12JOMJogi Magra (1)  13:20 13:25-13:22 13:27-2m1192.942335mNWRNagaur, Rajasthan
13MTD•Merta Road Junction (4)•  13:42-13:47-5m--1103.3103322mNWRPhalodi, Rajasthan
14KQWKheduli (1)  13:55 13:56-13:57-2 1m--1118.717307mNWRRen, Rajasthan
15RENRen  14:04-14:06-2m--1120.763307mNWRNagaur, Rajasthan
16JACJalsu  14:19-14:21-2m--1134.448321mNWRNagaur, Rajasthan
17JACNJalsu NanakX  14:28-14:30-2m--1140.013331mNWRREN, Rajasthan
18DNADegana Junction (4)  14:56 15:05-14:59 15:10-3 5m--1147.375339mNWRDegana, Rajasthan
19KRCKiroda  15:09 15:20-15:11 15:21-2 1m--1159.968351mNWRDegana, Rajasthan
20KHTUKhatu  15:37 15:32-15:39 15:33-2 1m--1172.353359mNWRKhatu Khurd, Rajasthan
21CTKTChoti Khatu  15:45 15:39-15:47 15:41-2m--1177.658338mNWRDegana, Rajasthan
22PWPirwa  16:00 15:55-16:02 15:56-2 1m--1191.053337mNWRDegana, Rajasthan
23KKNAKhunkhuna  16:10 16:03-16:12 16:04-2 1m--1197.257350mNWRState Highway 60, Rajasthan
24MBSKMarwar Balia  16:22 16:15-16:24 16:16-2 1m--1207.648335mNWRMarwar, Rajasthan
25DIADidwana  16:30 16:23-16:32 16:26-2 3m--1213.256342mNWRDidwana, Rajasthan
26SVOSanvrad  16:45 16:40-16:47 16:41-2 1m--1226.456338mNWRDidwana, Rajasthan
27BLSDBalsamand  16:55 16:50-16:57 16:51-2 1m--1234.848323mNWRDidwana, Rajasthan
28LAULadnun (1)  17:06 17:03-17:08 17:05-2m--1244.322330mNWRNagaur District. 341306, Rajasthan
29JSHJaswantgarh  17:16 17:18-17:18 17:19-2 1m--1249.013312mNWRSujangarh, Rajasthan
30SUJHSujangarh  17:24 17:42-17:26 17:45-2 3m--1254.161318mNWRSujangarh, Rajasthan
31TLCTalchhapar  17:39 17:58-17:41 18:00-2m--1267.464305mNWRSujangarh, Rajasthan
32PIHParhiharaX  17:52 18:12-17:54 18:14-2m--1280.233312mNWRSujangarh, Rajasthan
33LOHALoha  18:09 18:35-18:11 18:36-2 1m--1291.736318mNWRRatangarh, Rajasthan
34RTGHRatangarh JunctionX  18:50-19:00-10m--1300.072309mNWRRatangarh, Rajasthan
35MIOMolisar  19:14-19:15-1m--1316.960310mNWRChuru, Rajasthan
36SMNNShri Makri Nath Nagar  19:21-19:22-1m--1323.039307mNWRChuru, Rajasthan
37JOHJuharpura  19:27-19:28-1m--1326.268302mNWRState Highway 69, Rajasthan
38DEPDepalsar  19:36-19:38-2m--1335.238292mNWRChuru, Rajasthan
39CURChuru Junction (3)  19:50-20:00-10m--1342.880288mNWRChuru Junction, Rajasthan
40ASLUAslu  20:11-20:13-2m--1357.453284mNWRNational Highway 65, Rajasthan
41SRSLSirsala20:23-20:24-1m--1366.353275mNWRNational Highway 65, Rajasthan
42DKXDudhwakharaX  20:30-20:31-1m--1371.656262mNWRNational Highway 65, Rajasthan
43HYLHadyal  20:45-20:46-1m--1384.756255mNWRMDR 97, Rajasthan
44DKWADokwa  20:54-20:55-1m--1392.251251mNWRNational Highway 65, Rajasthan
45SDLPSadulpur Junction  21:05-21:10-5m--1400.640239mNWRRajgarh, Rajasthan
46SURPSuratpura  21:16-21:17-1m--1404.670239mNWRNational Highway 65, Rajasthan
47JUPJhunpa  21:31-21:32-1m--1421.078225mNWRDist. Bhiwani 127046, Haryana
48SWNISiwani  21:47-21:49-2m--1440.556210mNWRNational Highway 65, Haryana
49CRWCharaud  22:01-22:02-1m--1451.634212mNWRNational Highway 65, Haryana
50HSRHisar Junction (6)  22:35----1470.5-215mNWRHisar, Haryana
Scroll to Top
Scroll to Bottom